Time;durP1;ratioP1;P1;durP2;ratioP2;P2;SDS_P1;SDS_P2;PMS_P1;PMS_P2;Temp;Humidity;BMP_temperature;BMP_pressure;BME280_temperature;BME280_humidity;BME280_pressure;Samples;Min_cycle;Max_cycle;Signal;HPM_P1;HPM_P2
2023/04/15 00:00:58;;;;;;;0.40;0.30;;;;;;;11.95;100.00;94658.03;5136262;27;20490;-60
2023/04/15 00:03:27;;;;;;;0.50;0.50;;;;;;;11.92;100.00;94658.63;5135693;27;20470;-61
2023/04/15 00:05:56;;;;;;;0.40;0.37;;;;;;;11.90;100.00;94663.44;5135789;27;20430;-60
2023/04/15 00:08:24;;;;;;;0.30;0.30;;;;;;;11.81;100.00;94654.59;5134839;27;20966;-60
2023/04/15 00:10:53;;;;;;;1.27;0.60;;;;;;;11.26;100.00;94654.38;5135149;27;20435;-60
2023/04/15 00:13:23;;;;;;;0.70;0.70;;;;;;;11.29;100.00;94639.75;5135221;27;20521;-60
2023/04/15 00:15:51;;;;;;;0.60;0.40;;;;;;;11.21;100.00;94649.16;5135147;27;20989;-60
2023/04/15 00:18:19;;;;;;;0.30;0.30;;;;;;;11.11;100.00;94651.19;5135661;27;20992;-60
2023/04/15 00:20:48;;;;;;;0.40;0.20;;;;;;;10.80;100.00;94651.63;5135262;27;20443;-60
2023/04/15 00:23:16;;;;;;;0.57;0.40;;;;;;;10.49;100.00;94649.66;5135199;27;20553;-59
2023/04/15 00:25:45;;;;;;;0.40;0.30;;;;;;;10.76;100.00;94639.22;5134575;27;20552;-60
2023/04/15 00:28:13;;;;;;;0.30;0.30;;;;;;;10.92;100.00;94666.31;5134810;27;20530;-59
2023/04/15 00:30:43;;;;;;;2.00;1.90;;;;;;;11.30;100.00;94667.88;5134845;27;21004;-59
2023/04/15 00:33:14;;;;;;;0.40;0.30;;;;;;;11.30;100.00;94612.16;5134767;27;20980;-59
2023/04/15 00:35:43;;;;;;;0.40;0.40;;;;;;;11.75;100.00;94663.72;5134876;27;20469;-59
2023/04/15 00:38:11;;;;;;;0.40;0.30;;;;;;;11.64;100.00;94622.50;5135219;27;20487;-59
2023/04/15 00:40:40;;;;;;;0.30;0.20;;;;;;;11.54;100.00;94651.81;5134882;27;20450;-59
2023/04/15 00:43:09;;;;;;;0.40;0.30;;;;;;;11.74;100.00;94656.84;5124595;27;20467;-59
2023/04/15 00:45:37;;;;;;;0.30;0.20;;;;;;;11.87;100.00;94659.50;5132409;27;20447;-59
2023/04/15 00:48:08;;;;;;;0.30;0.20;;;;;;;11.58;100.00;94631.59;5134725;27;20935;-60
2023/04/15 00:50:36;;;;;;;0.43;0.43;;;;;;;11.61;100.00;94649.59;5134345;27;20463;-59
2023/04/15 00:53:05;;;;;;;1.63;1.53;;;;;;;11.36;100.00;94648.13;5134668;27;20948;-59
2023/04/15 00:55:33;;;;;;;0.50;0.50;;;;;;;11.49;100.00;94642.88;5134878;27;20431;-59
2023/04/15 00:58:01;;;;;;;3.03;0.60;;;;;;;11.34;100.00;94653.75;5133694;27;20439;-59
2023/04/15 01:00:30;;;;;;;0.50;0.50;;;;;;;11.08;100.00;94660.50;5134611;27;20427;-59
2023/04/15 01:02:58;;;;;;;1.13;0.57;;;;;;;11.34;100.00;94656.41;5134152;27;20833;-59
2023/04/15 01:05:29;;;;;;;0.30;0.20;;;;;;;11.68;100.00;94661.44;5134578;27;20438;-59
2023/04/15 01:07:57;;;;;;;0.57;0.50;;;;;;;11.84;100.00;94670.72;5133285;27;20918;-59
2023/04/15 01:10:26;;;;;;;5.73;0.40;;;;;;;11.77;100.00;94672.97;5134732;27;20443;-59
2023/04/15 01:12:54;;;;;;;1.43;0.90;;;;;;;11.85;100.00;94671.50;5134446;27;20439;-59
2023/04/15 01:15:23;;;;;;;0.40;0.40;;;;;;;11.92;100.00;94671.91;5134318;27;20447;-59
2023/04/15 01:17:52;;;;;;;0.37;0.30;;;;;;;11.72;100.00;94680.22;5133777;27;20435;-60
2023/04/15 01:20:21;;;;;;;0.50;0.30;;;;;;;11.92;100.00;94682.53;5133529;27;20947;-60
2023/04/15 01:22:51;;;;;;;0.30;0.20;;;;;;;11.97;100.00;94688.53;5133988;27;20434;-59
2023/04/15 01:25:21;;;;;;;0.30;0.20;;;;;;;11.94;100.00;94696.31;5133639;27;20466;-60
2023/04/15 01:27:51;;;;;;;0.40;0.30;;;;;;;11.47;100.00;94634.44;5134017;27;20442;-60
2023/04/15 01:30:19;;;;;;;1.50;0.30;;;;;;;11.57;100.00;94699.00;5133835;27;20446;-59
2023/04/15 01:32:48;;;;;;;0.50;0.30;;;;;;;11.67;100.00;94693.53;5134336;27;20431;-59
2023/04/15 01:35:16;;;;;;;0.30;0.23;;;;;;;11.64;100.00;94681.63;5134385;27;20435;-59
2023/04/15 01:37:45;;;;;;;0.40;0.30;;;;;;;11.98;100.00;94681.38;5133903;27;20443;-60
2023/04/15 01:40:14;;;;;;;0.30;0.30;;;;;;;12.05;100.00;94663.97;5133827;27;20459;-60
2023/04/15 01:42:42;;;;;;;1.00;0.40;;;;;;;11.95;100.00;94666.00;5133423;27;20896;-59
2023/04/15 01:45:12;;;;;;;0.50;0.40;;;;;;;11.66;100.00;94665.44;5132887;27;20474;-59
2023/04/15 01:47:41;;;;;;;0.40;0.30;;;;;;;11.25;100.00;94676.72;5134060;27;20518;-60
2023/04/15 01:50:10;;;;;;;0.47;0.47;;;;;;;11.37;100.00;94671.75;5133548;27;20931;-61
2023/04/15 01:52:38;;;;;;;0.40;0.30;;;;;;;11.44;100.00;94668.69;5133928;27;20435;-59
2023/04/15 01:55:08;;;;;;;0.53;0.53;;;;;;;10.98;100.00;94612.91;5133215;27;20514;-59
2023/04/15 01:57:36;;;;;;;0.40;0.30;;;;;;;11.33;100.00;94676.03;5133704;27;20943;-59
2023/04/15 02:00:07;;;;;;;1.20;0.47;;;;;;;11.25;100.00;94633.47;5133659;27;20427;-60
2023/04/15 02:02:36;;;;;;;0.40;0.30;;;;;;;11.31;100.00;94688.81;5133889;27;20882;-60
2023/04/15 02:05:06;;;;;;;0.70;0.50;;;;;;;11.40;100.00;94683.63;5126138;27;20482;-59
2023/04/15 02:07:34;;;;;;;0.30;0.30;;;;;;;11.42;100.00;94684.94;5133568;27;20510;-60
2023/04/15 02:10:03;;;;;;;0.57;0.30;;;;;;;11.44;100.00;94692.59;5133308;27;20927;-59
2023/04/15 02:12:31;;;;;;;0.40;0.30;;;;;;;11.35;100.00;94694.31;5133210;27;20435;-60
2023/04/15 02:14:59;;;;;;;1.43;0.40;;;;;;;11.37;100.00;94689.50;5133227;27;20467;-60
2023/04/15 02:17:28;;;;;;;0.33;0.27;;;;;;;11.32;100.00;94692.25;5133651;27;20829;-60
2023/04/15 02:19:58;;;;;;;0.43;0.37;;;;;;;11.12;100.00;94693.34;5106205;27;20439;-60
2023/04/15 02:22:26;;;;;;;0.40;0.40;;;;;;;10.84;100.00;94689.75;5133007;27;20435;-59
2023/04/15 02:24:55;;;;;;;1.00;0.60;;;;;;;10.69;100.00;94647.53;5132972;27;20496;-60
2023/04/15 02:27:23;;;;;;;1.13;1.03;;;;;;;10.87;100.00;94692.91;5132911;27;20438;-59
2023/04/15 02:29:51;;;;;;;0.80;0.80;;;;;;;10.81;100.00;94698.25;5133031;27;20434;-60
2023/04/15 02:32:22;;;;;;;0.37;0.23;;;;;;;10.77;100.00;94699.91;5132716;27;20566;-59
2023/04/15 02:34:50;;;;;;;0.40;0.40;;;;;;;10.58;100.00;94690.34;5132644;27;20474;-60
2023/04/15 02:37:20;;;;;;;0.60;0.50;;;;;;;10.68;100.00;94690.22;5132644;27;20672;-60
2023/04/15 02:39:48;;;;;;;0.50;0.30;;;;;;;10.65;100.00;94688.91;5132880;27;20447;-61
2023/04/15 02:42:17;;;;;;;0.63;0.40;;;;;;;10.80;100.00;94688.72;5132579;27;20430;-59
2023/04/15 02:44:45;;;;;;;0.30;0.30;;;;;;;10.89;100.00;94677.50;5132345;27;20504;-59
2023/04/15 02:47:14;;;;;;;0.30;0.20;;;;;;;10.79;100.00;94686.38;5132307;27;20436;-60
2023/04/15 02:49:43;;;;;;;0.40;0.30;;;;;;;10.77;100.00;94683.22;5132730;27;20518;-59
2023/04/15 02:52:11;;;;;;;0.40;0.40;;;;;;;10.81;100.00;94668.31;5132232;27;20518;-59
2023/04/15 02:54:41;;;;;;;0.60;0.57;;;;;;;10.97;100.00;94688.25;5131876;27;20439;-61
2023/04/15 02:57:10;;;;;;;0.40;0.20;;;;;;;10.86;100.00;94694.75;5131511;27;20898;-60
2023/04/15 02:59:38;;;;;;;0.30;0.30;;;;;;;10.56;100.00;94698.59;5132577;27;21186;-60
2023/04/15 03:02:07;;;;;;;0.40;0.30;;;;;;;10.31;100.00;94661.81;5132133;28;20439;-60
2023/04/15 03:04:38;;;;;;;2.20;0.60;;;;;;;10.68;100.00;94700.81;5132925;28;20473;-60
2023/04/15 03:07:06;;;;;;;1.10;0.70;;;;;;;10.86;100.00;94702.72;5132507;28;20434;-58
2023/04/15 03:09:35;;;;;;;0.30;0.20;;;;;;;11.07;100.00;94701.38;5132271;27;20450;-59
2023/04/15 03:12:05;;;;;;;0.30;0.30;;;;;;;11.01;100.00;94707.00;5132512;28;20462;-58
2023/04/15 03:14:33;;;;;;;0.40;0.40;;;;;;;11.15;100.00;94708.69;5132521;27;20439;-60
2023/04/15 03:17:01;;;;;;;0.43;0.40;;;;;;;11.00;100.00;94706.25;5132595;27;20442;-59
2023/04/15 03:19:30;;;;;;;0.40;0.30;;;;;;;11.23;100.00;94717.84;5132635;28;20572;-59
2023/04/15 03:21:58;;;;;;;0.30;0.20;;;;;;;11.28;100.00;94707.16;5132501;28;21033;-60
2023/04/15 03:24:28;;;;;;;0.60;0.60;;;;;;;11.31;100.00;94706.56;5131486;27;20567;-60
2023/04/15 03:26:56;;;;;;;0.63;0.60;;;;;;;11.37;100.00;94700.91;5132186;28;20529;-59
2023/04/15 03:29:26;;;;;;;0.30;0.20;;;;;;;11.22;100.00;94709.09;5132100;28;20426;-60
2023/04/15 03:31:55;;;;;;;4.00;0.30;;;;;;;10.99;100.00;94709.97;5132333;28;20503;-59
2023/04/15 03:34:23;;;;;;;0.30;0.20;;;;;;;11.21;100.00;94712.81;5131900;28;20549;-59
2023/04/15 03:36:51;;;;;;;0.40;0.40;;;;;;;11.32;100.00;94713.47;5132229;28;20441;-59
2023/04/15 03:39:20;;;;;;;0.53;0.40;;;;;;;11.29;100.00;94717.47;5132113;27;20435;-59
2023/04/15 03:41:48;;;;;;;5.20;0.60;;;;;;;11.17;100.00;94725.09;5132198;27;20435;-58
2023/04/15 03:44:16;;;;;;;0.40;0.30;;;;;;;11.32;100.00;94730.19;5104936;28;20502;-59
2023/04/15 03:46:46;;;;;;;1.90;0.50;;;;;;;11.33;100.00;94731.75;5132377;27;20445;-59
2023/04/15 03:49:15;;;;;;;0.60;0.30;;;;;;;11.52;100.00;94729.09;5131620;28;20466;-60
2023/04/15 03:51:43;;;;;;;0.60;0.37;;;;;;;11.57;100.00;94736.97;5131760;28;20538;-59
2023/04/15 03:54:14;;;;;;;1.60;0.43;;;;;;;11.52;100.00;94736.25;5132048;28;20443;-60
2023/04/15 03:56:42;;;;;;;1.03;0.80;;;;;;;11.26;100.00;94757.84;5131483;28;20883;-60
2023/04/15 03:59:10;;;;;;;0.53;0.53;;;;;;;10.90;100.00;94746.16;5132314;28;20471;-60
2023/04/15 04:01:38;;;;;;;0.30;0.30;;;;;;;10.72;100.00;94742.41;5131935;28;20439;-59
2023/04/15 04:04:08;;;;;;;0.40;0.40;;;;;;;10.80;100.00;94735.66;5132023;28;20431;-59
2023/04/15 04:06:37;;;;;;;0.97;0.97;;;;;;;11.18;100.00;94747.88;5132392;27;20883;-59
2023/04/15 04:09:05;;;;;;;0.30;0.20;;;;;;;11.43;100.00;94736.91;5135857;27;20446;-59
2023/04/15 04:11:33;;;;;;;0.30;0.23;;;;;;;10.93;100.00;94684.56;5135155;27;20471;-59
2023/04/15 04:14:02;;;;;;;0.40;0.30;;;;;;;11.41;100.00;94759.50;5135849;27;20438;-59
2023/04/15 04:16:30;;;;;;;0.47;0.30;;;;;;;11.49;100.00;94756.19;5135903;27;20431;-59
2023/04/15 04:18:58;;;;;;;2.00;0.93;;;;;;;11.51;100.00;94762.00;5135637;27;20523;-59
2023/04/15 04:21:28;;;;;;;0.30;0.20;;;;;;;11.47;100.00;94727.31;5129484;27;20430;-60
2023/04/15 04:23:57;;;;;;;0.37;0.30;;;;;;;11.83;100.00;94770.03;5128548;27;20916;-58
2023/04/15 04:26:26;;;;;;;0.40;0.30;;;;;;;11.95;100.00;94774.88;5135740;27;20920;-59
2023/04/15 04:28:54;;;;;;;0.60;0.50;;;;;;;11.76;100.00;94763.53;5134811;27;20495;-60
2023/04/15 04:31:22;;;;;;;0.40;0.30;;;;;;;12.04;100.00;94779.25;5135386;27;20533;-59
2023/04/15 04:33:51;;;;;;;0.50;0.50;;;;;;;12.16;100.00;94776.13;5134977;27;20443;-60
2023/04/15 04:36:19;;;;;;;0.70;0.70;;;;;;;12.14;100.00;94762.38;5135328;27;20923;-60
2023/04/15 04:38:49;;;;;;;0.40;0.30;;;;;;;12.38;100.00;94773.63;5134720;27;20967;-59
2023/04/15 04:41:18;;;;;;;0.40;0.30;;;;;;;12.17;100.00;94793.63;5134458;27;20530;-58
2023/04/15 04:43:46;;;;;;;1.40;0.83;;;;;;;12.29;100.00;94786.00;5134544;27;20825;-58
2023/04/15 04:46:14;;;;;;;1.20;0.77;;;;;;;12.30;100.00;94792.88;5134280;27;20470;-58
2023/04/15 04:48:43;;;;;;;0.70;0.70;;;;;;;12.04;100.00;94786.44;5134465;27;20519;-58
2023/04/15 04:51:14;;;;;;;1.70;1.63;;;;;;;12.29;100.00;94796.66;5135025;27;20441;-58
2023/04/15 04:53:43;;;;;;;0.80;0.50;;;;;;;12.57;100.00;94797.47;5134668;27;20478;-58
2023/04/15 04:56:12;;;;;;;0.97;0.97;;;;;;;12.67;100.00;94795.41;5134384;27;20518;-58
2023/04/15 04:58:41;;;;;;;0.50;0.40;;;;;;;12.98;100.00;94797.50;5134795;27;20709;-58
2023/04/15 05:01:09;;;;;;;1.07;0.97;;;;;;;12.91;100.00;94805.06;5135002;27;20453;-58
2023/04/15 05:03:38;;;;;;;0.40;0.30;;;;;;;12.82;100.00;94806.84;5134629;27;20959;-58
2023/04/15 05:06:07;;;;;;;4.63;2.00;;;;;;;12.50;100.00;94811.13;5134683;27;20813;-59
2023/04/15 05:08:36;;;;;;;0.40;0.40;;;;;;;12.97;100.00;94818.00;5134104;27;20518;-59
2023/04/15 05:11:07;;;;;;;0.77;0.77;;;;;;;13.10;100.00;94811.13;5134374;27;20431;-60
2023/04/15 05:13:37;;;;;;;0.50;0.50;;;;;;;12.80;100.00;94761.91;5121527;27;20492;-60
2023/04/15 05:16:06;;;;;;;0.50;0.30;;;;;;;13.00;100.00;94808.63;5133953;27;20525;-60
2023/04/15 05:18:35;;;;;;;0.40;0.30;;;;;;;13.06;100.00;94810.91;5133206;27;20489;-59
2023/04/15 05:21:04;;;;;;;0.30;0.20;;;;;;;13.31;93.93;94807.72;5133992;27;20935;-60
2023/04/15 05:23:32;;;;;;;0.30;0.30;;;;;;;13.60;93.45;94814.59;5134417;27;20435;-60
2023/04/15 05:26:00;;;;;;;0.53;0.53;;;;;;;13.75;90.83;94820.38;5133345;27;20476;-60
2023/04/15 05:28:29;;;;;;;0.40;0.30;;;;;;;13.92;88.51;94815.16;5134428;27;20434;-60
2023/04/15 05:30:58;;;;;;;0.70;0.50;;;;;;;13.83;89.67;94821.53;5133410;27;20441;-60
2023/04/15 05:33:27;;;;;;;0.40;0.30;;;;;;;14.15;88.85;94817.84;5133061;27;20434;-60
2023/04/15 05:35:55;;;;;;;0.70;0.70;;;;;;;13.96;89.10;94828.69;5134098;27;20466;-60
2023/04/15 05:38:24;;;;;;;0.60;0.60;;;;;;;13.97;87.19;94815.06;5133451;27;20451;-60
2023/04/15 05:40:52;;;;;;;0.70;0.47;;;;;;;14.02;86.82;94827.47;5133992;27;20431;-60
2023/04/15 05:43:20;;;;;;;1.20;1.20;;;;;;;14.12;86.18;94831.75;5133523;27;20522;-60
2023/04/15 05:45:49;;;;;;;0.47;0.47;;;;;;;13.37;88.83;94832.38;5133682;27;20475;-59
2023/04/15 05:48:18;;;;;;;0.70;0.70;;;;;;;13.90;88.96;94838.66;5133700;27;20471;-60
2023/04/15 05:50:47;;;;;;;1.13;0.97;;;;;;;13.77;86.70;94844.81;5133721;27;20515;-59
2023/04/15 05:53:15;;;;;;;0.60;0.60;;;;;;;14.24;84.86;94848.03;5133523;27;20441;-59
2023/04/15 05:55:44;;;;;;;3.33;0.70;;;;;;;14.46;84.44;94824.03;5132700;27;21025;-59
2023/04/15 05:58:12;;;;;;;2.73;2.20;;;;;;;13.96;85.63;94845.44;5132627;27;20965;-59
2023/04/15 06:00:40;;;;;;;0.50;0.50;;;;;;;14.31;86.32;94843.06;5133022;27;20445;-59
2023/04/15 06:03:10;;;;;;;0.77;0.77;;;;;;;14.53;85.55;94843.06;5130937;27;20526;-59
2023/04/15 06:05:40;;;;;;;1.90;0.60;;;;;;;14.13;84.58;94844.81;5120526;27;20908;-58
2023/04/15 06:08:09;;;;;;;1.97;1.53;;;;;;;13.97;83.10;94851.56;5131870;27;20522;-57
2023/04/15 06:10:37;;;;;;;0.70;0.50;;;;;;;14.12;84.00;94850.41;5132348;27;20495;-59
2023/04/15 06:13:06;;;;;;;0.57;0.30;;;;;;;14.47;83.25;94844.28;5132412;27;20948;-59
2023/04/15 06:15:34;;;;;;;0.50;0.40;;;;;;;14.85;83.10;94844.66;5132795;27;20431;-59
2023/04/15 06:18:02;;;;;;;0.87;0.70;;;;;;;14.83;81.58;94860.94;5133041;27;21019;-58
2023/04/15 06:20:30;;;;;;;1.23;1.20;;;;;;;14.92;79.98;94853.78;5133055;27;20442;-59
2023/04/15 06:23:00;;;;;;;0.63;0.63;;;;;;;15.35;78.56;94847.81;5133215;27;20523;-58
2023/04/15 06:25:29;;;;;;;0.70;0.70;;;;;;;15.31;80.21;94858.31;5132832;27;20474;-58
2023/04/15 06:27:57;;;;;;;0.40;0.40;;;;;;;15.55;78.07;94855.28;5132777;27;20433;-59
2023/04/15 06:30:25;;;;;;;4.60;1.33;;;;;;;15.73;75.33;94855.00;5132580;27;20431;-62
2023/04/15 06:32:55;;;;;;;1.57;0.63;;;;;;;15.77;73.50;94809.72;5132372;27;20487;-60
2023/04/15 06:35:23;;;;;;;2.07;1.40;;;;;;;16.65;72.37;94853.75;5132802;27;20446;-60
2023/04/15 06:37:51;;;;;;;0.50;0.40;;;;;;;17.20;71.55;94840.34;5132786;27;20900;-59
2023/04/15 06:40:22;;;;;;;0.60;0.60;;;;;;;17.36;69.60;94849.41;5132764;27;20451;-60
2023/04/15 06:42:51;;;;;;;0.60;0.60;;;;;;;17.06;70.31;94853.16;5132419;27;20449;-60
2023/04/15 06:45:19;;;;;;;0.77;0.57;;;;;;;17.51;68.53;94848.84;5132818;27;20491;-60
2023/04/15 06:47:47;;;;;;;0.87;0.80;;;;;;;16.98;69.66;94846.72;5132512;27;20474;-60
2023/04/15 06:50:16;;;;;;;1.40;1.27;;;;;;;15.84;73.38;94858.94;5131918;27;20477;-61
2023/04/15 06:52:44;;;;;;;3.07;1.50;;;;;;;16.10;76.22;94802.03;5132648;27;20495;-61
2023/04/15 06:55:13;;;;;;;2.70;1.73;;;;;;;15.13;78.85;94865.47;5132544;27;20478;-62
2023/04/15 06:57:43;;;;;;;1.23;1.17;;;;;;;15.83;78.84;94865.41;5132421;27;20529;-61
2023/04/15 07:00:12;;;;;;;1.53;1.43;;;;;;;15.30;78.28;94827.38;5132218;27;21072;-61
2023/04/15 07:02:41;;;;;;;0.57;0.57;;;;;;;16.49;77.16;94866.03;5132715;27;20522;-60
2023/04/15 07:05:10;;;;;;;0.80;0.70;;;;;;;16.14;75.18;94869.81;5132101;27;20435;-60
2023/04/15 07:07:38;;;;;;;1.23;1.23;;;;;;;16.70;74.71;94876.88;5132027;28;20502;-59
2023/04/15 07:10:08;;;;;;;1.30;1.30;;;;;;;16.44;73.87;94885.69;5131840;28;21018;-60
2023/04/15 07:12:36;;;;;;;3.03;1.00;;;;;;;17.02;70.68;94879.00;5133010;28;20897;-60
2023/04/15 07:15:07;;;;;;;0.50;0.50;;;;;;;16.35;70.72;94850.13;5106090;28;20441;-59
2023/04/15 07:17:35;;;;;;;0.70;0.40;;;;;;;15.87;71.89;94886.91;5131981;28;20518;-60
2023/04/15 07:20:04;;;;;;;0.40;0.40;;;;;;;16.97;70.60;94887.22;5130278;28;20435;-60
2023/04/15 07:22:33;;;;;;;1.60;1.33;;;;;;;17.06;69.90;94885.28;5125770;28;20530;-61
2023/04/15 07:25:01;;;;;;;0.80;0.53;;;;;;;16.94;68.47;94890.53;5120827;28;20549;-62
2023/04/15 07:27:30;;;;;;;1.10;1.10;;;;;;;16.94;67.73;94885.97;5131927;28;20463;-62
2023/04/15 07:29:58;;;;;;;0.40;0.33;;;;;;;18.19;66.11;94877.13;5132441;27;20435;-64
2023/04/15 07:32:28;;;;;;;0.40;0.30;;;;;;;18.77;66.05;94868.13;5132204;28;21005;-65
2023/04/15 07:34:56;;;;;;;0.40;0.30;;;;;;;19.83;60.62;94828.63;5131655;28;20500;-64
2023/04/15 07:37:24;;;;;;;0.40;0.40;;;;;;;19.18;59.38;94875.28;5132916;28;20529;-65
2023/04/15 07:42:38;;;;;;;0.40;0.37;;;;;;;19.52;58.33;94871.44;5134781;27;20491;-67
2023/04/15 07:45:09;;;;;;;0.47;0.37;;;;;;;19.55;58.87;94876.94;5135818;27;20439;-68
2023/04/15 07:47:39;;;;;;;0.57;0.40;;;;;;;18.75;60.28;94878.41;5135691;27;20512;-69
2023/04/15 07:50:09;;;;;;;0.60;0.40;;;;;;;18.22;60.96;94884.53;5135611;27;20439;-68
2023/04/15 07:52:39;;;;;;;15.67;1.10;;;;;;;18.82;60.78;94880.59;5136239;27;20447;-68
2023/04/15 07:55:08;;;;;;;0.80;0.50;;;;;;;18.90;59.54;94882.38;5135967;27;20431;-67
2023/04/15 07:57:37;;;;;;;0.97;0.67;;;;;;;19.97;58.54;94888.22;5135462;27;20486;-67
2023/04/15 08:00:07;;;;;;;0.40;0.30;;;;;;;21.18;56.10;94877.03;5135185;27;20470;-64
2023/04/15 08:02:35;;;;;;;0.60;0.40;;;;;;;20.79;53.44;94881.38;5135731;27;20511;-65
2023/04/15 08:05:09;;;;;;;2.00;0.80;;;;;;;21.24;53.16;94870.28;5135656;27;20858;-64
2023/04/15 08:07:37;;;;;;;0.40;0.30;;;;;;;21.47;53.03;94846.97;5135405;27;21139;-63
2023/04/15 08:10:07;;;;;;;0.50;0.50;;;;;;;21.07;52.23;94773.59;5135170;27;20441;-62
2023/04/15 08:12:35;;;;;;;0.40;0.30;;;;;;;22.22;50.56;94843.25;5135871;27;20829;-61
2023/04/15 08:15:05;;;;;;;0.67;0.43;;;;;;;22.82;48.32;94842.56;5134635;27;20499;-61
2023/04/15 08:17:34;;;;;;;0.50;0.50;;;;;;;23.51;46.43;94846.91;5135254;27;20446;-61
2023/04/15 08:20:03;;;;;;;0.83;0.83;;;;;;;22.21;47.84;94839.03;5134941;27;20943;-61
2023/04/15 08:22:33;;;;;;;0.40;0.40;;;;;;;22.08;48.36;94846.47;5134799;27;20526;-62
2023/04/15 08:25:02;;;;;;;1.17;0.97;;;;;;;20.88;49.65;94840.81;5135109;27;20470;-64
2023/04/15 08:27:30;;;;;;;0.43;0.43;;;;;;;20.38;52.63;94846.78;5134850;27;20473;-65
2023/04/15 08:29:59;;;;;;;0.53;0.30;;;;;;;20.33;54.27;94841.63;5135197;27;20441;-63
2023/04/15 08:32:31;;;;;;;0.60;0.57;;;;;;;18.93;55.12;94774.28;5135363;27;20426;-62
2023/04/15 08:35:00;;;;;;;1.27;0.30;;;;;;;19.56;57.64;94850.81;5134969;27;20837;-63
2023/04/15 08:37:29;;;;;;;0.40;0.30;;;;;;;20.34;54.37;94848.56;5135203;27;20470;-63
2023/04/15 08:39:58;;;;;;;0.40;0.30;;;;;;;20.94;53.37;94844.84;5134889;27;20465;-63
2023/04/15 08:42:31;;;;;;;0.70;0.50;;;;;;;19.73;53.88;94763.75;5135446;27;20954;-63
2023/04/15 08:45:01;;;;;;;0.40;0.30;;;;;;;20.49;52.52;94806.69;5135308;27;20474;-62
2023/04/15 08:47:31;;;;;;;0.40;0.30;;;;;;;21.20;51.45;94837.03;5134492;27;20476;-62
2023/04/15 08:50:03;;;;;;;0.50;0.50;;;;;;;19.90;51.59;94822.66;5134854;27;20443;-60
2023/04/15 08:52:32;;;;;;;1.17;0.60;;;;;;;19.29;51.63;94830.75;5134733;27;20439;-62
2023/04/15 08:55:03;;;;;;;0.50;0.40;;;;;;;19.60;50.77;94832.91;5134001;27;20868;-61
2023/04/15 08:57:33;;;;;;;0.40;0.30;;;;;;;19.59;50.12;94832.13;5134760;27;20439;-60
2023/04/15 09:00:03;;;;;;;0.40;0.30;;;;;;;20.61;48.98;94820.09;5134696;27;20943;-61
2023/04/15 09:02:33;;;;;;;0.43;0.40;;;;;;;20.52;47.13;94838.28;5134912;27;20439;-61
2023/04/15 09:05:03;;;;;;;0.50;0.30;;;;;;;19.99;49.72;94834.84;5134089;27;20462;-61
2023/04/15 09:07:34;;;;;;;0.43;0.40;;;;;;;19.84;50.46;94830.16;5134117;27;21030;-62
2023/04/15 09:10:05;;;;;;;1.23;1.07;;;;;;;19.32;46.65;94818.53;5134453;27;20453;-61
2023/04/15 09:12:35;;;;;;;1.53;0.60;;;;;;;19.49;45.59;94831.78;5134411;27;20458;-62
2023/04/15 09:15:04;;;;;;;1.27;0.70;;;;;;;18.77;46.07;94833.22;5134103;27;20451;-62
2023/04/15 09:17:33;;;;;;;0.80;0.80;;;;;;;19.03;44.58;94832.94;5134218;27;20435;-59
2023/04/15 09:20:10;;;;;;;4.80;1.33;;;;;;;19.62;43.33;94818.00;5134175;27;20814;-59
2023/04/15 09:22:39;;;;;;;0.33;0.20;;;;;;;20.32;42.77;94815.81;5133793;27;20526;-60
2023/04/15 09:25:26;;;;;;;0.40;0.30;;;;;;;20.12;43.35;94820.25;5133899;27;20466;-63
2023/04/15 09:27:56;;;;;;;0.50;0.50;;;;;;;19.65;45.31;94832.66;5133448;27;20470;-62
2023/04/15 09:30:25;;;;;;;0.67;0.50;;;;;;;19.21;46.76;94812.03;5134027;27;20948;-60
2023/04/15 09:32:55;;;;;;;0.50;0.50;;;;;;;18.87;45.92;94823.97;5133585;27;20439;-58
2023/04/15 09:35:26;;;;;;;0.63;0.47;;;;;;;18.09;46.79;94807.78;5134330;27;20431;-58
2023/04/15 09:38:03;;;;;;;0.40;0.30;;;;;;;18.28;46.68;94759.84;5133578;27;20496;-58
2023/04/15 09:40:34;;;;;;;5.90;0.50;;;;;;;18.50;47.45;94812.34;5133776;27;20435;-58
2023/04/15 09:43:03;;;;;;;0.50;0.30;;;;;;;18.63;46.30;94816.66;5133749;27;20438;-59
2023/04/15 09:45:33;;;;;;;0.40;0.30;;;;;;;19.38;46.16;94803.81;5134001;27;20526;-58
2023/04/15 09:48:17;;;;;;;0.40;0.20;;;;;;;20.30;44.92;94803.84;5134115;27;20514;-57
2023/04/15 09:50:45;;;;;;;0.40;0.40;;;;;;;20.49;43.58;94804.75;5133496;27;20435;-58
2023/04/15 09:53:17;;;;;;;0.40;0.40;;;;;;;21.05;43.98;94797.38;5133227;27;20439;-60
2023/04/15 09:55:50;;;;;;;0.40;0.30;;;;;;;21.75;42.52;94795.59;5133480;27;20435;-61
2023/04/15 09:58:19;;;;;;;1.33;0.40;;;;;;;21.76;42.96;94774.78;5135761;27;20438;-62
2023/04/15 10:00:49;;;;;;;0.40;0.30;;;;;;;21.53;42.90;94747.69;5124806;27;20519;-63
2023/04/15 10:03:21;;;;;;;0.40;0.20;;;;;;;22.21;42.68;94780.41;5129434;27;20805;-63
2023/04/15 10:05:51;;;;;;;1.33;0.80;;;;;;;22.48;40.68;94776.69;5132939;27;20434;-64
2023/04/15 10:08:22;;;;;;;0.30;0.20;;;;;;;23.10;41.00;94778.22;5132973;27;20502;-65
2023/04/15 10:10:52;;;;;;;0.30;0.20;;;;;;;23.93;38.61;94774.47;5133205;27;20439;-62
2023/04/15 10:13:22;;;;;;;0.40;0.30;;;;;;;24.60;38.16;94763.69;5133203;27;20530;-61
2023/04/15 10:15:56;;;;;;;1.10;0.40;;;;;;;23.55;38.27;94777.41;5120288;27;20472;-62
2023/04/15 10:18:26;;;;;;;0.40;0.30;;;;;;;23.58;37.78;94771.25;5107257;27;20800;-63
2023/04/15 10:20:55;;;;;;;0.40;0.30;;;;;;;22.99;36.93;94773.78;5133109;27;20438;-63
2023/04/15 10:23:24;;;;;;;0.40;0.30;;;;;;;22.88;36.23;94762.78;5132977;27;20434;-66
2023/04/15 10:25:55;;;;;;;0.30;0.30;;;;;;;22.81;37.17;94748.38;5132599;27;20998;-63
2023/04/15 10:28:23;;;;;;;0.40;0.20;;;;;;;23.42;37.96;94750.94;5133095;27;20526;-63
2023/04/15 10:30:53;;;;;;;0.30;0.20;;;;;;;22.62;39.27;94738.38;5132095;27;20972;-64
2023/04/15 10:33:23;;;;;;;0.30;0.30;;;;;;;23.49;39.48;94737.50;5132836;27;20442;-61
2023/04/15 10:35:54;;;;;;;0.40;0.30;;;;;;;23.23;38.86;94744.44;5132817;27;20472;-61
2023/04/15 10:38:34;;;;;;;0.30;0.30;;;;;;;23.26;37.90;94735.59;5132637;27;20955;-60
2023/04/15 10:41:20;;;;;;;0.40;0.30;;;;;;;23.88;37.84;94726.06;5132298;27;20943;-59
2023/04/15 10:43:51;;;;;;;0.60;0.40;;;;;;;24.75;34.06;94727.47;5132912;27;20439;-59
2023/04/15 10:46:23;;;;;;;0.30;0.20;;;;;;;25.16;34.34;94725.53;5132737;27;20472;-59
2023/04/15 10:48:53;;;;;;;0.37;0.30;;;;;;;24.65;33.74;94728.13;5132568;27;20477;-59
2023/04/15 10:51:29;;;;;;;0.40;0.30;;;;;;;25.54;31.29;94735.91;5132574;27;20530;-59
2023/04/15 10:53:59;;;;;;;0.40;0.40;;;;;;;25.91;28.93;94733.00;5131945;27;20882;-58
2023/04/15 10:56:30;;;;;;;0.53;0.50;;;;;;;26.92;30.36;94687.53;5132591;27;20435;-58
2023/04/15 10:59:01;;;;;;;0.30;0.30;;;;;;;27.59;26.24;94720.97;5132742;27;20446;-59
2023/04/15 11:01:51;;;;;;;0.40;0.40;;;;;;;26.89;24.79;94726.41;5132403;27;20430;-59
2023/04/15 11:04:51;;;;;;;0.40;0.30;;;;;;;25.77;24.95;94730.22;5132204;27;20438;-59
2023/04/15 11:07:37;;;;;;;0.63;0.63;;;;;;;27.06;25.32;94720.19;5111283;28;20851;-59
2023/04/15 11:10:56;;;;;;;0.40;0.30;;;;;;;28.25;23.90;94718.47;5131965;27;20514;-59
2023/04/15 11:13:31;;;;;;;0.30;0.20;;;;;;;28.33;21.57;94723.47;5131937;28;20495;-58
2023/04/15 11:16:01;;;;;;;0.50;0.50;;;;;;;28.59;21.77;94722.16;5132044;27;20877;-59
2023/04/15 11:18:31;;;;;;;0.40;0.30;;;;;;;28.13;20.06;94727.84;5136273;27;20530;-58
2023/04/15 11:21:02;;;;;;;1.20;0.50;;;;;;;28.12;19.84;94693.59;5136287;27;20442;-59
2023/04/15 11:23:36;;;;;;;0.57;0.53;;;;;;;26.47;20.85;94727.03;5135556;27;20436;-59
2023/04/15 11:26:08;;;;;;;0.40;0.30;;;;;;;26.49;19.30;94716.56;5135552;27;20518;-60
2023/04/15 11:28:40;;;;;;;0.33;0.30;;;;;;;27.70;21.89;94732.59;5136491;27;20472;-60
2023/04/15 11:31:10;;;;;;;0.30;0.20;;;;;;;27.18;21.64;94727.19;5136247;27;20890;-59
2023/04/15 11:33:46;;;;;;;0.30;0.20;;;;;;;26.53;23.21;94720.09;5136091;27;20529;-59
2023/04/15 11:36:14;;;;;;;0.70;0.50;;;;;;;27.49;23.42;94715.53;5136202;27;21033;-59
2023/04/15 11:38:44;;;;;;;0.30;0.20;;;;;;;27.29;22.09;94725.25;5135872;27;20470;-59
2023/04/15 11:41:13;;;;;;;0.40;0.30;;;;;;;26.71;23.64;94710.03;5135623;27;20466;-59
2023/04/15 11:43:43;;;;;;;0.30;0.30;;;;;;;26.38;21.15;94730.16;5135393;27;20823;-60